LTAG/ADF METAR and TAF weather

Enter ICAO airport designator
Station Type Date Time Source
LTAG METAR 2019/12/07 04:50 UTC NOAA

LTAG 070450Z 36003KT CAVOK 05/02 Q1019 NOSIG


Station Type Date Time Source
LTAG Decoded METAR 2019/12/07 04:50 UTC NOAA

Adana / Incirlik, Turkey (LTAG) 37-00N 035-25E 66M
Dec 06, 2019 - 11:50 PM EST / 2019.12.07 0450 UTC
Wind: from the N (360 degrees) at 3 MPH (3 KT):0
Visibility: greater than 7 mile(s):0
Temperature: 41 F (5 C)
Dew Point: 35 F (2 C)
Relative Humidity: 80%
Pressure (altimeter): 30.09 in. Hg (1019 hPa)
ob: LTAG 070450Z 36003KT CAVOK 05/02 Q1019 NOSIG
cycle: 5

Station Type Date Time Source
LTAG TAF 2019/12/07 06:03 UTC NOAA

TAF TAF LTAG 070440Z 0706/0806 VRB02KT CAVOK
BECMG 0717/0719 SCT030

Example: see airport list